Mount Calm, Texas
Current Conditions -  °F | °C
As of 3:55 PM on Thursday 23 Oct 2014 (Local Time) from KCNW Reporting Station
Clear Clear  
Wind Chill: 81°   Ceiling: Unl
Heat Index: 81°   Visibility: 10mi
Dew Point: 55°   Wind: 0mph
Humidity: 42%   Direction: NA
Pressure: 30.08"   Gusts: NA
Location:  31.76°N, 96.88°W
Report Text: KCNW 232055Z 00000KT 10SM SKC 27/13 A3008
Loading
Personal Weather Stations






























Interactive Weather Map
Tropical Storm Tracking
New forecast layout! Learn more

10-Day Weather Forecast

Advertisements
Track Severe Weather on mobile